createdAt,value
2017-11-18T00:00:21.890Z,6.96
2017-11-18T00:01:21.929Z,6.92
2017-11-18T00:02:21.634Z,6.96
2017-11-18T00:03:21.651Z,6.92
2017-11-18T00:04:21.946Z,6.96
2017-11-18T00:05:21.711Z,6.89
2017-11-18T00:06:21.956Z,6.87
2017-11-18T00:07:21.698Z,6.96
2017-11-18T00:08:21.980Z,6.87
2017-11-18T00:09:21.737Z,6.89
2017-11-18T00:10:22.001Z,6.89
2017-11-18T00:11:21.750Z,6.88
2017-11-18T00:12:22.029Z,6.88
2017-11-18T00:13:21.769Z,6.87
2017-11-18T00:14:22.057Z,6.89
2017-11-18T00:15:22.064Z,6.89
2017-11-18T00:16:21.811Z,6.92
2017-11-18T00:17:22.088Z,6.89
2017-11-18T00:18:21.828Z,6.82
2017-11-18T00:19:22.130Z,6.82
2017-11-18T00:20:22.128Z,6.84
2017-11-18T00:21:21.871Z,6.78
2017-11-18T00:22:22.166Z,6.78
2017-11-18T00:23:21.891Z,6.85
2017-11-18T00:24:22.179Z,6.82
2017-11-18T00:25:22.195Z,6.84
2017-11-18T00:26:22.201Z,6.81
2017-11-18T00:27:22.215Z,6.7
2017-11-18T00:28:22.268Z,6.81
2017-11-18T00:29:22.246Z,6.79
2017-11-18T00:30:22.253Z,6.77
2017-11-18T00:31:22.270Z,6.75
2017-11-18T00:32:22.274Z,6.78
2017-11-18T00:33:22.286Z,6.77
2017-11-18T00:34:22.297Z,6.81
2017-11-18T00:35:22.307Z,6.77
2017-11-18T00:36:22.318Z,6.66
2017-11-18T00:37:22.343Z,6.75
2017-11-18T00:38:21.805Z,6.74
2017-11-18T00:39:22.359Z,6.72
2017-11-18T00:40:22.379Z,6.75
2017-11-18T00:41:22.393Z,6.67
2017-11-18T00:42:22.132Z,6.66
2017-11-18T00:43:22.433Z,6.75
2017-11-18T00:44:22.417Z,6.67
2017-11-18T00:45:22.433Z,6.7
2017-11-18T00:46:22.183Z,6.75
2017-11-18T00:47:22.188Z,6.67
2017-11-18T00:48:22.476Z,6.64
2017-11-18T00:49:22.229Z,6.72
2017-11-18T00:50:22.495Z,6.62
2017-11-18T00:51:22.506Z,6.59
2017-11-18T00:52:22.555Z,6.66
2017-11-18T00:53:22.255Z,6.66
2017-11-18T00:54:22.271Z,6.57
2017-11-18T00:55:22.552Z,6.62
2017-11-18T00:56:22.574Z,6.62
2017-11-18T00:57:22.581Z,6.74
2017-11-18T00:58:22.593Z,6.69
2017-11-18T00:59:22.596Z,6.6
2017-11-18T01:00:22.650Z,6.64
2017-11-18T01:01:22.361Z,6.63
2017-11-18T01:02:22.637Z,6.66
2017-11-18T01:03:22.664Z,6.57
2017-11-18T01:04:22.406Z,6.57
2017-11-18T01:05:22.406Z,6.67
2017-11-18T01:06:22.427Z,6.62
2017-11-18T01:07:22.695Z,6.64
2017-11-18T01:08:22.723Z,6.66
2017-11-18T01:09:22.717Z,6.63
2017-11-18T01:10:22.742Z,6.57
2017-11-18T01:11:22.478Z,6.64
2017-11-18T01:12:22.490Z,6.64
2017-11-18T01:13:22.782Z,6.59
2017-11-18T01:14:22.512Z,6.59
2017-11-18T01:15:22.797Z,6.56
2017-11-18T01:16:22.799Z,6.48
2017-11-18T01:17:22.543Z,6.57
2017-11-18T01:18:22.583Z,6.52
2017-11-18T01:19:22.571Z,6.57
2017-11-18T01:20:22.862Z,6.49
2017-11-18T01:21:22.868Z,6.56
2017-11-18T01:22:22.883Z,6.56
2017-11-18T01:23:22.882Z,6.54
2017-11-18T01:24:22.914Z,6.49
2017-11-18T01:25:22.911Z,6.52
2017-11-18T01:26:22.937Z,6.52
2017-11-18T01:27:22.666Z,6.59
2017-11-18T01:28:22.680Z,6.54
2017-11-18T01:29:22.690Z,6.57
2017-11-18T01:30:22.975Z,6.54
2017-11-18T01:31:22.982Z,6.56
2017-11-18T01:32:22.997Z,6.57
2017-11-18T01:33:22.746Z,6.54
2017-11-18T01:34:22.747Z,6.51
2017-11-18T01:35:22.761Z,6.49
2017-11-18T01:36:23.038Z,6.52
2017-11-18T01:37:23.047Z,6.59
2017-11-18T01:38:23.065Z,6.49
2017-11-18T01:39:22.807Z,6.46
2017-11-18T01:40:23.082Z,6.49
2017-11-18T01:41:23.100Z,6.49
2017-11-18T01:42:22.844Z,6.45
2017-11-18T01:43:23.127Z,6.45
2017-11-18T01:44:22.870Z,6.45
2017-11-18T01:45:22.883Z,6.46
2017-11-18T01:46:22.887Z,6.42
2017-11-18T01:47:23.182Z,6.48
2017-11-18T01:48:23.221Z,6.45
2017-11-18T01:49:23.212Z,6.45
2017-11-18T01:50:23.205Z,6.46
2017-11-18T01:51:23.221Z,6.49
2017-11-18T01:52:22.962Z,6.49
2017-11-18T01:53:22.973Z,6.3
2017-11-18T01:54:23.265Z,6.33
2017-11-18T01:55:23.277Z,6.46
2017-11-18T01:56:23.295Z,6.38
2017-11-18T01:57:23.299Z,6.48
2017-11-18T01:58:23.319Z,6.31
2017-11-18T01:59:23.324Z,6.46
2017-11-18T02:00:23.075Z,6.48
2017-11-18T02:01:23.339Z,6.46
2017-11-18T02:02:23.087Z,6.42
2017-11-18T02:03:23.107Z,6.52
2017-11-18T02:04:23.405Z,6.51
2017-11-18T02:05:23.131Z,6.52
2017-11-18T02:06:23.410Z,6.45
2017-11-18T02:07:23.421Z,6.44
2017-11-18T02:08:23.151Z,6.48
2017-11-18T02:09:23.533Z,6.42
2017-11-18T02:10:23.177Z,6.48
2017-11-18T02:11:23.459Z,6.48
2017-11-18T02:12:22.931Z,6.44
2017-11-18T02:13:23.485Z,6.46
2017-11-18T02:14:23.497Z,6.31
2017-11-18T02:15:23.232Z,6.45
2017-11-18T02:16:23.521Z,6.49
2017-11-18T02:17:23.269Z,6.44
2017-11-18T02:18:23.273Z,6.45
2017-11-18T02:19:23.281Z,6.42
2017-11-18T02:20:23.024Z,6.46
2017-11-18T02:21:23.037Z,6.46
2017-11-18T02:22:23.589Z,6.38
2017-11-18T02:23:23.597Z,6.46
2017-11-18T02:24:23.341Z,6.48
2017-11-18T02:25:23.352Z,6.46
2017-11-18T02:26:23.630Z,6.48
2017-11-18T02:27:23.649Z,6.46
2017-11-18T02:28:23.658Z,6.48
2017-11-18T02:29:23.672Z,6.46
2017-11-18T02:30:23.441Z,6.49
2017-11-18T02:31:23.439Z,6.54
2017-11-18T02:32:23.716Z,6.52
2017-11-18T02:33:23.717Z,6.46
2017-11-18T02:34:23.193Z,6.49
2017-11-18T02:35:23.741Z,6.52
2017-11-18T02:36:23.753Z,6.44
2017-11-18T02:37:23.512Z,6.46
2017-11-18T02:38:23.501Z,6.51
2017-11-18T02:39:23.805Z,6.51
2017-11-18T02:40:23.809Z,6.51
2017-11-18T02:41:23.811Z,6.48
2017-11-18T02:42:23.832Z,6.48
2017-11-18T02:43:23.577Z,6.49
2017-11-18T02:44:23.854Z,6.51
2017-11-18T02:45:23.859Z,6.57
2017-11-18T02:46:23.870Z,6.51
2017-11-18T02:47:23.896Z,6.51
2017-11-18T02:48:24.036Z,6.51
2017-11-18T02:49:23.913Z,6.52
2017-11-18T02:50:23.649Z,6.51
2017-11-18T02:51:23.928Z,6.54
2017-11-18T02:52:23.673Z,6.56
2017-11-18T02:53:23.958Z,6.52
2017-11-18T02:54:23.966Z,6.54
2017-11-18T02:55:23.992Z,6.52
2017-11-18T02:56:23.991Z,6.56
2017-11-18T02:57:24.256Z,6.6
2017-11-18T02:58:24.021Z,6.62
2017-11-18T02:59:24.028Z,6.54
2017-11-18T03:00:24.039Z,6.54
2017-11-18T03:01:24.043Z,6.45
2017-11-18T03:02:24.106Z,6.54
2017-11-18T03:03:24.063Z,6.56
2017-11-18T03:04:23.811Z,6.54
2017-11-18T03:05:24.090Z,6.52
2017-11-18T03:06:23.832Z,6.54
2017-11-18T03:07:24.112Z,6.59
2017-11-18T03:08:23.859Z,6.57
2017-11-18T03:09:24.146Z,6.51
2017-11-18T03:10:24.151Z,6.52
2017-11-18T03:11:24.160Z,6.51
2017-11-18T03:12:24.175Z,6.54
2017-11-18T03:13:24.187Z,6.57
2017-11-18T03:14:23.929Z,6.54
2017-11-18T03:15:23.937Z,6.52
2017-11-18T03:16:23.958Z,6.62
2017-11-18T03:17:23.963Z,6.6
2017-11-18T03:18:24.256Z,6.59
2017-11-18T03:19:24.260Z,6.59
2017-11-18T03:20:24.273Z,6.49
2017-11-18T03:21:24.319Z,6.59
2017-11-18T03:22:24.288Z,6.56
2017-11-18T03:23:24.305Z,6.57
2017-11-18T03:24:24.315Z,6.49
2017-11-18T03:25:24.325Z,6.57
2017-11-18T03:26:24.337Z,6.6
2017-11-18T03:27:24.356Z,6.62
2017-11-18T03:28:24.370Z,6.62
2017-11-18T03:29:24.374Z,6.6
2017-11-18T03:30:24.402Z,6.67
2017-11-18T03:31:24.405Z,6.62
2017-11-18T03:32:24.143Z,6.62
2017-11-18T03:33:24.162Z,6.62
2017-11-18T03:34:24.430Z,6.6
2017-11-18T03:35:24.176Z,6.62
2017-11-18T03:36:24.182Z,6.74
2017-11-18T03:37:24.195Z,6.64
2017-11-18T03:38:24.481Z,6.62
2017-11-18T03:39:24.486Z,6.66
2017-11-18T03:40:24.240Z,6.75
2017-11-18T03:41:24.517Z,6.7
2017-11-18T03:42:24.526Z,6.69
2017-11-18T03:43:24.534Z,6.69
2017-11-18T03:44:24.548Z,6.69
2017-11-18T03:45:24.297Z,6.74
2017-11-18T03:46:24.302Z,6.66
2017-11-18T03:47:24.583Z,6.63
2017-11-18T03:48:24.607Z,6.64
2017-11-18T03:49:24.605Z,6.6
2017-11-18T03:50:24.345Z,6.63
2017-11-18T03:51:24.633Z,6.69
2017-11-18T03:52:24.640Z,6.66
2017-11-18T03:53:24.572Z,6.6
2017-11-18T03:54:24.681Z,6.62
2017-11-18T03:55:24.680Z,6.62
2017-11-18T03:56:24.692Z,6.66
2017-11-18T03:57:24.431Z,6.59
2017-11-18T03:58:24.714Z,6.66
2017-11-18T03:59:24.723Z,6.7
2017-11-18T04:00:24.752Z,6.57
2017-11-18T04:01:24.751Z,6.67
2017-11-18T04:02:24.493Z,6.62
2017-11-18T04:03:24.773Z,6.63
2017-11-18T04:04:24.795Z,6.62
2017-11-18T04:05:24.548Z,6.57
2017-11-18T04:06:24.537Z,6.6
2017-11-18T04:07:24.816Z,6.66
2017-11-18T04:08:24.831Z,6.62
2017-11-18T04:09:24.572Z,6.64
2017-11-18T04:10:24.860Z,6.56
2017-11-18T04:11:24.594Z,6.48
2017-11-18T04:12:24.881Z,6.52
2017-11-18T04:13:24.887Z,6.51
2017-11-18T04:14:24.634Z,6.6
2017-11-18T04:15:24.652Z,6.56
2017-11-18T04:16:24.927Z,6.56
2017-11-18T04:17:24.948Z,6.59
2017-11-18T04:18:24.950Z,6.56
2017-11-18T04:19:24.970Z,6.6
2017-11-18T04:20:24.700Z,6.57
2017-11-18T04:21:24.982Z,6.54
2017-11-18T04:22:25.001Z,6.59
2017-11-18T04:23:25.009Z,6.46
2017-11-18T04:24:24.750Z,6.57
2017-11-18T04:25:24.759Z,6.56
2017-11-18T04:26:24.499Z,6.52
2017-11-18T04:27:25.055Z,6.49
2017-11-18T04:28:25.066Z,6.44
2017-11-18T04:29:25.090Z,6.45
2017-11-18T04:30:25.092Z,6.45
2017-11-18T04:31:24.835Z,6.51
2017-11-18T04:32:25.121Z,6.46
2017-11-18T04:33:25.125Z,6.45
2017-11-18T04:34:24.874Z,6.38
2017-11-18T04:35:25.155Z,6.3
2017-11-18T04:36:24.889Z,6.35
2017-11-18T04:37:25.174Z,6.33
2017-11-18T04:38:25.182Z,6.42
2017-11-18T04:39:25.193Z,6.38
2017-11-18T04:40:24.934Z,6.41
2017-11-18T04:41:25.216Z,6.3
2017-11-18T04:42:25.236Z,6.33
2017-11-18T04:43:25.254Z,6.3
2017-11-18T04:44:25.254Z,6.31
2017-11-18T04:45:24.993Z,6.36
2017-11-18T04:46:25.312Z,6.31
2017-11-18T04:47:25.294Z,6.33
2017-11-18T04:48:25.318Z,6.26
2017-11-18T04:49:25.311Z,6.27
2017-11-18T04:50:25.050Z,6.28
2017-11-18T04:51:25.335Z,6.22
2017-11-18T04:52:25.081Z,6.3
2017-11-18T04:53:25.360Z,6.24
2017-11-18T04:54:25.109Z,6.31
2017-11-18T04:55:25.385Z,6.3
2017-11-18T04:56:25.387Z,6.35
2017-11-18T04:57:25.425Z,6.28
2017-11-18T04:58:25.145Z,6.26
2017-11-18T04:59:25.160Z,6.24
2017-11-18T05:00:25.439Z,6.16
2017-11-18T05:01:25.471Z,6.27
2017-11-18T05:02:25.189Z,6.11
2017-11-18T05:03:25.475Z,6.2
2017-11-18T05:04:25.492Z,6.19
2017-11-18T05:05:25.230Z,6.22
2017-11-18T05:06:25.511Z,6.16
2017-11-18T05:07:25.520Z,6.16
2017-11-18T05:08:25.551Z,6.11
2017-11-18T05:09:25.542Z,6.16
2017-11-18T05:10:25.430Z,6.07
2017-11-18T05:11:25.569Z,6.19
2017-11-18T05:12:25.575Z,6.16
2017-11-18T05:13:25.606Z,6.17
2017-11-18T05:14:25.604Z,6.11
2017-11-18T05:15:25.342Z,6.04
2017-11-18T05:16:25.351Z,6.05
2017-11-18T05:17:25.648Z,6.01
2017-11-18T05:18:25.645Z,6.05
2017-11-18T05:19:25.664Z,6.01
2017-11-18T05:20:25.404Z,6.01
2017-11-18T05:21:25.708Z,6.11
2017-11-18T05:22:25.421Z,6.11
2017-11-18T05:23:25.709Z,6.02
2017-11-18T05:24:25.729Z,5.99
2017-11-18T05:25:25.456Z,5.98
2017-11-18T05:26:25.741Z,5.94
2017-11-18T05:27:25.482Z,5.99
2017-11-18T05:28:25.494Z,5.98
2017-11-18T05:29:25.776Z,5.99
2017-11-18T05:30:25.787Z,6.08
2017-11-18T05:31:25.795Z,6.02
2017-11-18T05:32:25.813Z,5.99
2017-11-18T05:33:25.816Z,6.05
2017-11-18T05:34:25.830Z,5.98
2017-11-18T05:35:25.574Z,5.94
2017-11-18T05:36:25.849Z,6.02
2017-11-18T05:37:25.871Z,6.02
2017-11-18T05:38:25.883Z,5.98
2017-11-18T05:39:25.896Z,5.98
2017-11-18T05:40:25.630Z,6.07
2017-11-18T05:41:25.908Z,6.04
2017-11-18T05:42:25.932Z,5.99
2017-11-18T05:43:25.938Z,5.99
2017-11-18T05:44:25.946Z,6.02
2017-11-18T05:45:25.685Z,5.98
2017-11-18T05:46:25.980Z,5.94
2017-11-18T05:47:25.980Z,6.05
2017-11-18T05:48:25.996Z,5.99
2017-11-18T05:49:26.001Z,6.08
2017-11-18T05:50:26.025Z,6.02
2017-11-18T05:51:25.750Z,5.99
2017-11-18T05:52:26.040Z,5.99
2017-11-18T05:53:26.046Z,5.99
2017-11-18T05:54:26.058Z,5.99
2017-11-18T05:55:26.071Z,5.94
2017-11-18T05:56:25.814Z,5.99
2017-11-18T05:57:26.112Z,6.01
2017-11-18T05:58:25.840Z,6.02
2017-11-18T05:59:25.849Z,6.05
2017-11-18T06:00:26.126Z,6.08
2017-11-18T06:01:26.141Z,6.11
2017-11-18T06:02:25.878Z,5.99
2017-11-18T06:03:26.169Z,6.09
2017-11-18T06:04:25.899Z,5.98
2017-11-18T06:05:26.179Z,5.98
2017-11-18T06:06:26.259Z,6.02
2017-11-18T06:07:26.208Z,5.99
2017-11-18T06:08:25.953Z,6.01
2017-11-18T06:09:26.233Z,6.05
2017-11-18T06:10:26.244Z,6.02
2017-11-18T06:11:26.251Z,5.94
2017-11-18T06:12:26.000Z,6.08
2017-11-18T06:13:26.273Z,5.94
2017-11-18T06:14:26.030Z,6.08
2017-11-18T06:15:26.039Z,6.07
2017-11-18T06:16:26.309Z,6.07
2017-11-18T06:17:26.050Z,6.07
2017-11-18T06:18:26.064Z,5.94
2017-11-18T06:19:26.343Z,5.94
2017-11-18T06:20:26.367Z,6.02
2017-11-18T06:21:26.357Z,6.08
2017-11-18T06:22:26.106Z,6.04
2017-11-18T06:23:26.405Z,6.02
2017-11-18T06:24:26.442Z,5.99
2017-11-18T06:25:26.138Z,6.02
2017-11-18T06:26:26.428Z,6.02
2017-11-18T06:27:26.434Z,6.05
2017-11-18T06:28:26.441Z,6.02
2017-11-18T06:29:26.457Z,6.05
2017-11-18T06:30:26.476Z,5.94
2017-11-18T06:31:26.489Z,6.08
2017-11-18T06:32:26.492Z,5.98
2017-11-18T06:33:25.963Z,6.07
2017-11-18T06:34:26.278Z,6.02
2017-11-18T06:35:26.525Z,5.99
2017-11-18T06:36:26.541Z,5.99
2017-11-18T06:37:26.285Z,6.01
2017-11-18T06:38:26.556Z,5.99
2017-11-18T06:39:26.032Z,5.99
2017-11-18T06:40:26.581Z,5.9
2017-11-18T06:41:26.321Z,6.01
2017-11-18T06:42:26.333Z,6.02
2017-11-18T06:43:26.344Z,5.99
2017-11-18T06:44:26.358Z,5.93
2017-11-18T06:45:26.636Z,5.97
2017-11-18T06:46:26.382Z,5.94
2017-11-18T06:47:26.669Z,5.99
2017-11-18T06:48:26.402Z,5.94
2017-11-18T06:49:26.418Z,5.94
2017-11-18T06:50:26.703Z,6.01
2017-11-18T06:51:26.702Z,5.94
2017-11-18T06:52:26.728Z,6.02
2017-11-18T06:53:26.728Z,5.94
2017-11-18T06:54:26.785Z,5.93
2017-11-18T06:55:26.483Z,5.98
2017-11-18T06:56:26.764Z,5.91
2017-11-18T06:57:26.780Z,5.9
2017-11-18T06:58:26.513Z,5.91
2017-11-18T06:59:26.526Z,5.91
2017-11-18T07:00:26.535Z,5.91
2017-11-18T07:01:26.821Z,6.01
2017-11-18T07:02:26.562Z,5.94
2017-11-18T07:03:26.301Z,5.91
2017-11-18T07:04:26.851Z,5.94
2017-11-18T07:05:26.591Z,6.04
2017-11-18T07:06:26.880Z,6.04
2017-11-18T07:07:26.891Z,5.97
2017-11-18T07:08:26.905Z,5.99
2017-11-18T07:09:26.643Z,5.97
2017-11-18T07:10:26.934Z,5.94
2017-11-18T07:11:26.669Z,5.97
2017-11-18T07:12:26.939Z,5.97
2017-11-18T07:13:26.958Z,5.93
2017-11-18T07:14:26.964Z,5.99
2017-11-18T07:15:26.720Z,5.94
2017-11-18T07:16:26.714Z,6.08
2017-11-18T07:17:26.998Z,5.98
2017-11-18T07:18:27.010Z,6.01
2017-11-18T07:19:27.024Z,6.08
2017-11-18T07:20:27.031Z,6.09
2017-11-18T07:21:27.047Z,6.04
2017-11-18T07:22:27.074Z,6.05
2017-11-18T07:23:27.067Z,6.11
2017-11-18T07:24:27.084Z,6.11
2017-11-18T07:25:26.820Z,6.01
2017-11-18T07:26:27.100Z,6.09
2017-11-18T07:27:27.123Z,6.16
2017-11-18T07:28:27.125Z,6.17
2017-11-18T07:29:27.138Z,6.14
2017-11-18T07:30:27.145Z,6.14
2017-11-18T07:31:26.890Z,6.12
2017-11-18T07:32:26.904Z,6.14
2017-11-18T07:33:27.191Z,6.14
2017-11-18T07:34:27.193Z,6.16
2017-11-18T07:35:26.966Z,6.16
2017-11-18T07:36:26.945Z,6.16
2017-11-18T07:37:27.247Z,6.17
2017-11-18T07:38:27.246Z,6.2
2017-11-18T07:39:27.269Z,6.17
2017-11-18T07:40:27.263Z,6.14
2017-11-18T07:41:26.995Z,6.16
2017-11-18T07:42:27.022Z,6.24
2017-11-18T07:43:27.025Z,6.2
2017-11-18T07:44:27.310Z,6.22
2017-11-18T07:45:27.327Z,6.24
2017-11-18T07:46:27.323Z,6.22
2017-11-18T07:47:27.343Z,6.27
2017-11-18T07:48:27.368Z,6.24
2017-11-18T07:49:27.088Z,6.35
2017-11-18T07:50:27.379Z,6.22
2017-11-18T07:51:27.389Z,6.3
2017-11-18T07:52:27.401Z,6.31
2017-11-18T07:53:27.405Z,6.3
2017-11-18T07:54:27.417Z,6.3
2017-11-18T07:55:27.427Z,6.28
2017-11-18T07:56:27.175Z,6.27
2017-11-18T07:57:27.181Z,6.3
2017-11-18T07:58:27.192Z,6.3
2017-11-18T07:59:27.474Z,6.38
2017-11-18T08:00:27.509Z,6.33
2017-11-18T08:01:27.224Z,6.36
2017-11-18T08:02:27.508Z,6.31
2017-11-18T08:03:27.257Z,6.36
2017-11-18T08:04:27.533Z,6.33
2017-11-18T08:05:27.547Z,6.35
2017-11-18T08:06:27.566Z,6.3
2017-11-18T08:07:27.299Z,6.35
2017-11-18T08:08:27.579Z,6.44
2017-11-18T08:09:27.591Z,6.42
2017-11-18T08:10:27.594Z,6.46
2017-11-18T08:11:27.344Z,6.48
2017-11-18T08:12:27.352Z,6.45
2017-11-18T08:13:27.639Z,6.45
2017-11-18T08:14:27.386Z,6.54
2017-11-18T08:15:27.660Z,6.49
2017-11-18T08:16:27.667Z,6.57
2017-11-18T08:17:27.687Z,6.52
2017-11-18T08:18:27.704Z,6.56
2017-11-18T08:19:27.437Z,6.56
2017-11-18T08:20:27.727Z,6.56
2017-11-18T08:21:27.467Z,6.52
2017-11-18T08:22:27.737Z,6.49
2017-11-18T08:23:27.801Z,6.54
2017-11-18T08:24:27.766Z,6.56
2017-11-18T08:25:27.503Z,6.54
2017-11-18T08:26:27.797Z,6.57
2017-11-18T08:27:27.526Z,6.59
2017-11-18T08:28:27.551Z,6.62
2017-11-18T08:29:27.556Z,6.64
2017-11-18T08:30:27.558Z,6.6
2017-11-18T08:31:27.571Z,6.62
2017-11-18T08:32:27.857Z,6.59
2017-11-18T08:33:27.878Z,6.6
2017-11-18T08:34:27.874Z,6.57
2017-11-18T08:35:27.906Z,6.6
2017-11-18T08:36:27.896Z,6.63
2017-11-18T08:37:27.916Z,6.66
2017-11-18T08:38:27.922Z,6.66
2017-11-18T08:39:27.940Z,6.6
2017-11-18T08:40:27.678Z,6.63
2017-11-18T08:41:27.965Z,6.72
2017-11-18T08:42:27.968Z,6.6
2017-11-18T08:43:27.990Z,6.72
2017-11-18T08:44:28.019Z,6.77
2017-11-18T08:45:28.001Z,6.67
2017-11-18T08:46:28.020Z,6.67
2017-11-18T08:47:28.028Z,6.72
2017-11-18T08:48:28.040Z,6.77
2017-11-18T08:49:28.057Z,6.77
2017-11-18T08:50:27.818Z,6.77
2017-11-18T08:51:28.073Z,6.75
2017-11-18T08:52:27.551Z,6.77
2017-11-18T08:53:28.105Z,6.81
2017-11-18T08:54:28.121Z,6.7
2017-11-18T08:55:28.126Z,6.87
2017-11-18T08:56:27.876Z,6.82
2017-11-18T08:57:28.146Z,6.82
2017-11-18T08:58:28.152Z,6.84
2017-11-18T08:59:28.170Z,6.84
2017-11-18T09:00:28.185Z,6.81
2017-11-18T09:01:28.204Z,6.81
2017-11-18T09:02:28.219Z,6.84
2017-11-18T09:03:27.673Z,6.75
2017-11-18T09:04:27.957Z,6.85
2017-11-18T09:05:27.968Z,6.84
2017-11-18T09:06:28.248Z,6.84
2017-11-18T09:07:28.262Z,6.85
2017-11-18T09:08:28.277Z,6.89
2017-11-18T09:09:28.305Z,6.93
2017-11-18T09:10:28.308Z,6.89
2017-11-18T09:11:28.040Z,6.87
2017-11-18T09:12:28.051Z,6.92
2017-11-18T09:13:28.059Z,6.88
2017-11-18T09:14:28.352Z,6.89
2017-11-18T09:15:28.094Z,6.88
2017-11-18T09:16:28.093Z,6.92
2017-11-18T09:17:28.110Z,6.95
2017-11-18T09:18:28.394Z,6.92
2017-11-18T09:19:28.416Z,6.92
2017-11-18T09:20:28.414Z,6.95
2017-11-18T09:21:28.163Z,6.89
2017-11-18T09:22:28.464Z,6.92
2017-11-18T09:23:28.449Z,6.95
2017-11-18T09:24:28.465Z,6.92
2017-11-18T09:25:28.488Z,6.95
2017-11-18T09:26:28.484Z,6.92
2017-11-18T09:27:28.226Z,6.96
2017-11-18T09:28:27.969Z,6.88
2017-11-18T09:29:28.534Z,6.93
2017-11-18T09:30:28.533Z,6.92
2017-11-18T09:31:28.002Z,6.88
2017-11-18T09:32:28.286Z,6.88
2017-11-18T09:33:28.585Z,6.88
2017-11-18T09:34:28.321Z,6.88
2017-11-18T09:35:28.595Z,6.95
2017-11-18T09:36:28.342Z,6.95
2017-11-18T09:37:28.622Z,6.95
2017-11-18T09:38:28.657Z,6.95
2017-11-18T09:39:28.381Z,6.96
2017-11-18T09:40:28.671Z,6.97
2017-11-18T09:41:28.668Z,6.93
2017-11-18T09:42:28.409Z,6.96
2017-11-18T09:43:28.704Z,7.07
2017-11-18T09:44:28.722Z,7.06
2017-11-18T09:45:28.723Z,6.97
2017-11-18T09:46:28.458Z,7
2017-11-18T09:47:28.734Z,7.05
2017-11-18T09:48:28.746Z,6.97
2017-11-18T09:49:28.767Z,7.11
2017-11-18T09:50:28.771Z,7.03
2017-11-18T09:51:28.519Z,7.06
2017-11-18T09:52:28.796Z,7.05
2017-11-18T09:53:28.806Z,7.05
2017-11-18T09:54:28.822Z,7.05
2017-11-18T09:55:28.835Z,7.11
2017-11-18T09:56:28.576Z,7.05
2017-11-18T09:57:28.866Z,7.05
2017-11-18T09:58:28.324Z,7.06
2017-11-18T09:59:28.338Z,7.02
2017-11-18T10:00:28.620Z,7
2017-11-18T10:01:28.903Z,7.1
2017-11-18T10:02:28.925Z,7.07
2017-11-18T10:03:28.928Z,7.13
2017-11-18T10:04:28.945Z,7.05
2017-11-18T10:05:28.948Z,7.07
2017-11-18T10:06:28.983Z,7.1
2017-11-18T10:07:28.983Z,7.13
2017-11-18T10:08:28.988Z,7.15
2017-11-18T10:09:28.764Z,7.15
2017-11-18T10:10:29.021Z,7.11
2017-11-18T10:11:28.755Z,7.14
2017-11-18T10:12:29.039Z,7.1
2017-11-18T10:13:29.053Z,7.11
2017-11-18T10:14:29.061Z,7.14
2017-11-18T10:15:28.800Z,7.13
2017-11-18T10:16:29.086Z,7.15
2017-11-18T10:17:29.093Z,7.06
2017-11-18T10:18:29.128Z,7.18
2017-11-18T10:19:29.125Z,7.2
2017-11-18T10:20:29.139Z,7.1
2017-11-18T10:21:28.890Z,7.17
2017-11-18T10:22:28.894Z,7.21
2017-11-18T10:23:28.894Z,7.21
2017-11-18T10:24:29.180Z,7.2
2017-11-18T10:25:28.919Z,7.1
2017-11-18T10:26:28.661Z,7.18
2017-11-18T10:27:29.233Z,7.17
2017-11-18T10:28:29.236Z,7.17
2017-11-18T10:29:29.241Z,7.24
2017-11-18T10:30:28.981Z,7.13
2017-11-18T10:31:28.995Z,7.17
2017-11-18T10:32:29.279Z,7.18
2017-11-18T10:33:29.308Z,7.14
2017-11-18T10:34:29.305Z,7.17
2017-11-18T10:35:29.047Z,7.15
2017-11-18T10:36:29.322Z,7.17
2017-11-18T10:37:29.081Z,7.17
2017-11-18T10:38:29.353Z,7.2
2017-11-18T10:39:29.397Z,7.17
2017-11-18T10:40:29.372Z,7.13
2017-11-18T10:41:29.392Z,7.21
2017-11-18T10:42:29.394Z,7.29
2017-11-18T10:43:29.413Z,7.23
2017-11-18T10:44:29.153Z,7.33
2017-11-18T10:45:29.469Z,7.28
2017-11-18T10:46:29.448Z,7.36
2017-11-18T10:47:29.463Z,7.25
2017-11-18T10:48:28.936Z,7.38
2017-11-18T10:49:29.480Z,7.24
2017-11-18T10:50:29.494Z,7.33
2017-11-18T10:51:29.237Z,7.31
2017-11-18T10:52:29.245Z,7.39
2017-11-18T10:53:29.531Z,7.39
2017-11-18T10:54:29.550Z,7.31
2017-11-18T10:55:29.286Z,7.29
2017-11-18T10:56:29.293Z,7.33
2017-11-18T10:57:29.310Z,7.33
2017-11-18T10:58:29.596Z,7.35
2017-11-18T10:59:29.607Z,7.32
2017-11-18T11:00:29.621Z,7.35
2017-11-18T11:01:29.631Z,7.35
2017-11-18T11:02:29.647Z,7.4
2017-11-18T11:03:29.652Z,7.32
2017-11-18T11:04:29.673Z,7.32
2017-11-18T11:05:29.681Z,7.33
2017-11-18T11:06:29.687Z,7.4
2017-11-18T11:07:29.706Z,7.39
2017-11-18T11:09:01.526Z,7.42
2017-11-18T11:09:29.721Z,7.42
2017-11-18T11:10:29.741Z,7.4
2017-11-18T11:11:29.758Z,7.4
2017-11-18T11:12:29.764Z,7.45
2017-11-18T11:13:29.781Z,7.43
2017-11-18T11:14:29.789Z,7.42
2017-11-18T11:15:29.528Z,7.42
2017-11-18T11:16:29.830Z,7.48
2017-11-18T11:17:29.824Z,7.47
2017-11-18T11:18:29.837Z,7.4
2017-11-18T11:20:01.382Z,7.42
2017-11-18T11:20:29.864Z,7.54
2017-11-18T11:21:29.331Z,7.48
2017-11-18T11:22:29.622Z,7.42
2017-11-18T11:23:29.638Z,7.43
2017-11-18T11:24:29.912Z,7.43
2017-11-18T11:25:29.654Z,7.53
2017-11-18T11:26:29.992Z,7.42
2017-11-18T11:27:29.948Z,7.53
2017-11-18T11:28:29.961Z,7.51
2017-11-18T11:29:29.976Z,7.54
2017-11-18T11:30:29.985Z,7.51
2017-11-18T11:31:29.729Z,7.47
2017-11-18T11:32:30.011Z,7.45
2017-11-18T11:33:30.028Z,7.42
2017-11-18T11:34:30.045Z,7.47
2017-11-18T11:35:30.053Z,7.48
2017-11-18T11:36:30.069Z,7.48
2017-11-18T11:37:30.076Z,7.5
2017-11-18T11:38:30.095Z,7.51
2017-11-18T11:39:29.830Z,7.48
2017-11-18T11:40:29.850Z,7.51
2017-11-18T11:41:29.850Z,7.39
2017-11-18T11:42:29.607Z,7.51
2017-11-18T11:43:29.872Z,7.47
2017-11-18T11:44:29.890Z,7.54
2017-11-18T11:45:29.907Z,7.47
2017-11-18T11:46:30.183Z,7.47
2017-11-18T11:47:29.650Z,7.45
2017-11-18T11:48:30.214Z,7.5
2017-11-18T11:49:29.950Z,7.5
2017-11-18T11:50:30.229Z,7.53
2017-11-18T11:51:30.254Z,7.48
2017-11-18T11:52:30.261Z,7.5
2017-11-18T11:53:30.267Z,7.5
2017-11-18T11:54:30.291Z,7.45
2017-11-18T11:55:30.024Z,7.47
2017-11-18T11:56:30.308Z,7.51
2017-11-18T11:57:30.370Z,7.45
2017-11-18T11:58:30.059Z,7.53
2017-11-18T11:59:30.343Z,7.43
2017-11-18T12:00:30.355Z,7.42
2017-11-18T12:01:30.098Z,7.45
2017-11-18T12:02:30.389Z,7.48
2017-11-18T12:03:30.124Z,7.47
2017-11-18T12:04:30.147Z,7.42
2017-11-18T12:05:30.148Z,7.45
2017-11-18T12:06:30.159Z,7.45
2017-11-18T12:07:30.173Z,7.39
2017-11-18T12:08:30.475Z,7.45
2017-11-18T12:09:30.201Z,7.39
2017-11-18T12:10:30.207Z,7.51
2017-11-18T12:11:30.221Z,7.47
2017-11-18T12:12:30.246Z,7.38
2017-11-18T12:13:30.518Z,7.35
2017-11-18T12:14:30.540Z,7.33
2017-11-18T12:15:30.554Z,7.39
2017-11-18T12:16:30.551Z,7.33
2017-11-18T12:17:30.570Z,7.39
2017-11-18T12:18:30.305Z,7.33
2017-11-18T12:19:30.592Z,7.35
2017-11-18T12:20:30.629Z,7.38
2017-11-18T12:21:30.624Z,7.33
2017-11-18T12:22:30.624Z,7.28
2017-11-18T12:23:30.366Z,7.25
2017-11-18T12:24:30.664Z,7.36
2017-11-18T12:25:30.671Z,7.31
2017-11-18T12:26:30.686Z,7.33
2017-11-18T12:27:30.689Z,7.33
2017-11-18T12:28:30.702Z,7.2
2017-11-18T12:29:30.714Z,7.32
2017-11-18T12:30:30.729Z,7.31
2017-11-18T12:31:30.466Z,7.28
2017-11-18T12:32:30.771Z,7.35
2017-11-18T12:33:30.796Z,7.29
2017-11-18T12:34:30.504Z,7.25
2017-11-18T12:35:30.523Z,7.32
2017-11-18T12:36:30.802Z,7.31
2017-11-18T12:37:30.811Z,7.33
2017-11-18T12:38:30.836Z,7.33
2017-11-18T12:39:30.840Z,7.29
2017-11-18T12:40:30.844Z,7.28
2017-11-18T12:41:30.864Z,7.32
2017-11-18T12:42:30.610Z,7.32
2017-11-18T12:43:30.901Z,7.28
2017-11-18T12:44:30.909Z,7.21
2017-11-18T12:45:30.914Z,7.33
2017-11-18T12:46:30.922Z,7.36
2017-11-18T12:47:30.935Z,7.33
2017-11-18T12:48:30.685Z,7.29
2017-11-18T12:49:30.970Z,7.33
2017-11-18T12:50:30.976Z,7.31
2017-11-18T12:51:30.987Z,7.21
2017-11-18T12:52:30.735Z,7.29
2017-11-18T12:53:31.012Z,7.24
2017-11-18T12:54:31.023Z,7.21
2017-11-18T12:55:31.038Z,7.18
2017-11-18T12:56:30.778Z,7.21
2017-11-18T12:57:31.062Z,7.21
2017-11-18T12:58:31.073Z,7.17
2017-11-18T12:59:31.085Z,7.29
2017-11-18T13:00:31.111Z,7.21
2017-11-18T13:01:31.114Z,7.21
2017-11-18T13:02:30.845Z,7.2
2017-11-18T13:03:31.149Z,7.17
2017-11-18T13:04:31.176Z,7.21
2017-11-18T13:05:31.165Z,7.28
2017-11-18T13:06:31.172Z,7.18
2017-11-18T13:07:31.183Z,7.23
2017-11-18T13:08:31.193Z,7.21
2017-11-18T13:09:31.205Z,7.24
2017-11-18T13:10:31.222Z,7.18
2017-11-18T13:11:31.239Z,7.18
2017-11-18T13:12:30.973Z,7.18
2017-11-18T13:13:31.261Z,7.23
2017-11-18T13:14:31.263Z,7.32
2017-11-18T13:15:31.283Z,7.31
2017-11-18T13:16:31.030Z,7.24
2017-11-18T13:17:31.306Z,7.31
2017-11-18T13:18:31.047Z,7.31
2017-11-18T13:19:31.333Z,7.18
2017-11-18T13:20:31.343Z,7.15